Terminal Aerodrome Forecast
Issued by NWS Sioux Falls, SD

Home | Current Version | Previous Version | Graphics & Text | Print | Product List | Glossary On
Versions: 1 2 3 4 5 6 7 8 9 10 11 12 13 14 15 16 17 18 19 20 21 22 23 24 25 26 27 28 29 30 31 32
000
FTUS43 KFSD 161126
TAFSUX
TAF
KSUX 161126Z 1612/1712 VRB03KT P6SM MIFG SKC
     FM161400 15003KT P6SM SKC
     FM161800 18011KT P6SM SCT030
     FM170000 14005KT P6SM BKN040=

USA.gov is the U.S. government's official web portal to all federal, state and local government web resources and services.